< < Back
Terminal Aerodrome Forecast


Current Version              Previous Versions:   1  2  3  4  5  6  7  8  9  

Terminal Aerodrome Forecast

056
FTAK31 PAJN 282329
TAFAHN
TAF
PAHN 282329Z 2900/2924 VRB06KT P6SM SCT070
     FM290600 32008KT P6SM SCT080
      AMD LTD TO CLD VIS AND WIND=

Latest METAR

932
SAUS70 KWBC 290400
MTRAHN
METAR KAHN 290351Z AUTO 00000KT 10SM CLR 21/18 A3013 RMK AO2 SLP196
T02060183


USA.gov is the U.S. government's official web portal to all federal, state and local government web resources and services.